Miguel Oliver — ECLX — position and weather

sailwx.info

Track history (hours):
 
Tides and Currents Weather Stations Pressure Air Temp Water Temp Dewpoint Dewpoint Depression Visibility Wind Speed Wind Dir Waves Ship Positions

Oceanographic research ship Miguel Oliver (Spain)

Ship's website: http://www.mapa.es/es/pesca/pags/miguel_web/index.htm

Last reported at 2019-Aug-15 07:46 UTC. Time now 2019-Aug-24 21:56 UTC.
Position N 41°57' W 009°03'.
Warning: this ship's position is 9 days out of date.

Length 70 m; draft 6 m.

Type: Other ship. MMSI: 225322000.

Date/timePositionNaut miles runAvg speedWind from/ knotsBaromVisibWave heightAir tempDewpointWater temp
2019-Aug-15 07:46N 41°57' W 009°03'310.6
2019-Aug-15 07:30N 41°54' W 009°04'6711.1
2019-Aug-15 01:28N 40°48' W 009°23'1611.1
2019-Aug-15 00:04N 40°33' W 009°27'7511.3
2019-Aug-14 17:28N 39°20' W 009°47'511.2
2019-Aug-14 17:00N 39°15' W 009°47'611.6
2019-Aug-14 16:30N 39°09' W 009°48'611.5
2019-Aug-14 16:01N 39°03' W 009°49'611.4
2019-Aug-14 15:30N 38°58' W 009°50'611.4
2019-Aug-14 15:00N 38°52' W 009°51'611.1
2019-Aug-14 14:30N 38°46' W 009°51'611.3
2019-Aug-14 14:00N 38°41' W 009°51'510.9
2019-Aug-14 13:30N 38°36' W 009°49'510.8
2019-Aug-14 13:00N 38°30' W 009°48'510.8
2019-Aug-14 12:30N 38°25' W 009°46'510.7
2019-Aug-14 12:00N 38°20' W 009°44'510.5
2019-Aug-14 11:30N 38°15' W 009°43'510.3
2019-Aug-14 11:00N 38°10' W 009°41'510.1
2019-Aug-14 10:30N 38°05' W 009°40'510.1
2019-Aug-14 10:00N 37°60' W 009°39'510.0
2019-Aug-14 09:30N 37°55' W 009°37'4 7.7
2019-Aug-14 09:01N 37°51' W 009°36'4 7.5
2019-Aug-14 08:30N 37°47' W 009°35'5 9.3
2019-Aug-14 08:00N 37°43' W 009°34'4 8.9
2019-Aug-14 07:31N 37°39' W 009°33'4 8.6
2019-Aug-14 07:00N 37°34' W 009°31'4 8.8
2019-Aug-14 06:30N 37°30' W 009°30'5 8.9
2019-Aug-14 05:58N 37°26' W 009°28'4 9.5
2019-Aug-14 05:30N 37°21' W 009°27'5 9.7
2019-Aug-14 04:58N 37°16' W 009°25'5 9.8
2019-Aug-14 04:30N 37°12' W 009°23'5 9.7
2019-Aug-14 04:00N 37°07' W 009°21'5 9.8
2019-Aug-14 03:31N 37°03' W 009°21'5 9.1
2019-Aug-14 03:01N 36°58' W 009°20'5 9.1
2019-Aug-14 02:30N 36°54' W 009°19'4 8.2
2019-Aug-14 02:00N 36°50' W 009°17'4 8.1
2019-Aug-14 01:31N 36°47' W 009°14'4 8.3
2019-Aug-14 01:01N 36°44' W 009°10'5 9.3
2019-Aug-14 00:31N 36°43' W 009°04'5 9.7
2019-Aug-14 00:01N 36°42' W 008°58'510.3
2019-Aug-13 23:31N 36°42' W 008°52'510.2
2019-Aug-13 22:58N 36°42' W 008°45'710.8
2019-Aug-13 22:19N 36°41' W 008°36'411.1
2019-Aug-13 22:00N 36°41' W 008°32'711.2
2019-Aug-13 21:24N 36°41' W 008°23'1211.3
2019-Aug-13 20:18N 36°40' W 008°08'411.3
2019-Aug-13 19:55N 36°40' W 008°03'511.2
2019-Aug-13 19:30N 36°39' W 007°57'611.1
2019-Aug-13 18:59N 36°39' W 007°49'12 0.3
2019-Aug-11 19:03N 36°46' W 008°02'411.0
2019-Aug-11 18:43N 36°45' W 008°06'24 4.5
2019-Aug-11 13:23N 36°36' W 008°34'3 6.8
2019-Aug-11 13:00N 36°36' W 008°31'0 0.0
2019-Aug-11 12:02N 36°36' W 008°31'17 7.7
2019-Aug-11 09:53N 36°44' W 008°49'12 8.1
2019-Aug-11 08:21N 36°55' W 008°57'1 2.1
2019-Aug-11 07:58N 36°54' W 008°57'2 4.3
2019-Aug-11 07:30N 36°52' W 008°57'2 4.9
2019-Aug-11 07:00N 36°50' W 008°56'4 7.9
2019-Aug-11 06:27N 36°54' W 008°57'510.7
2019-Aug-11 06:00N 36°59' W 008°57'4 7.3
2019-Aug-11 05:30N 37°00' W 008°52'2 4.0
2019-Aug-11 05:00N 37°00' W 008°50'2 3.9
2019-Aug-11 04:30N 37°01' W 008°48'2 4.0
2019-Aug-11 04:00N 37°01' W 008°45'2 4.2
2019-Aug-11 03:30N 37°01' W 008°42'1 1.8
2019-Aug-11 03:00N 36°60' W 008°43'3 5.3
2019-Aug-11 02:30N 37°00' W 008°46'2 3.7
2019-Aug-11 02:00N 36°60' W 008°48'2 3.5
2019-Aug-11 01:30N 36°59' W 008°50'2 4.7
2019-Aug-11 01:00N 36°58' W 008°53'3 6.5
2019-Aug-11 00:30N 36°58' W 008°57'2 3.9
2019-Aug-10 23:58N 36°56' W 008°56'2 3.8
2019-Aug-10 23:26N 36°54' W 008°57'2 4.0
2019-Aug-10 22:51N 36°51' W 008°56'3 4.2
2019-Aug-10 22:01N 36°48' W 008°54'0 4.2
2019-Aug-10 21:55N 36°48' W 008°54'1 0.9
2019-Aug-10 21:00N 36°47' W 008°53'1 2.4
2019-Aug-10 20:29N 36°48' W 008°53'0 0.5
2019-Aug-10 20:00N 36°48' W 008°53'2 4.6
2019-Aug-10 19:28N 36°51' W 008°53'1 2.4
2019-Aug-10 18:57N 36°52' W 008°53'2 4.1
2019-Aug-10 18:29N 36°54' W 008°53'3 6.7
2019-Aug-10 17:59N 36°57' W 008°53'2 3.9
2019-Aug-10 17:30N 36°59' W 008°53'2 3.3
2019-Aug-10 17:00N 37°01' W 008°53'2 3.6
2019-Aug-10 16:30N 37°01' W 008°51'2 4.7
2019-Aug-10 16:00N 37°02' W 008°49'2 3.1
2019-Aug-10 15:30N 37°01' W 008°47'510.0
2019-Aug-10 15:00N 36°56' W 008°46'0 0.7
2019-Aug-10 14:30N 36°56' W 008°47'2 4.7
2019-Aug-10 14:00N 36°58' W 008°47'4 7.3
2019-Aug-10 13:30N 36°55' W 008°47'4 7.7
2019-Aug-10 13:00N 36°51' W 008°45'5 9.5
2019-Aug-10 12:30N 36°53' W 008°40'2 3.1
2019-Aug-10 12:00N 36°53' W 008°38'2 4.3
2019-Aug-10 11:30N 36°52' W 008°36'1 2.8
2019-Aug-10 11:00N 36°53' W 008°37'0 0.4
2019-Aug-10 10:30N 36°53' W 008°38'3 5.8
2019-Aug-10 10:00N 36°52' W 008°34'4 8.5
2019-Aug-10 09:30N 36°55' W 008°37'1 1.4
2019-Aug-10 09:00N 36°55' W 008°37'2 4.4
2019-Aug-10 08:30N 36°53' W 008°37'1 2.4
2019-Aug-10 08:00N 36°51' W 008°37'510.7
2019-Aug-10 07:30N 36°57' W 008°37'510.5
2019-Aug-10 07:00N 37°02' W 008°37'2 3.1
2019-Aug-10 06:30N 37°03' W 008°38'3 5.9
2019-Aug-10 06:00N 37°06' W 008°37'1 1.7
2019-Aug-10 05:30N 37°05' W 008°37'3 5.2
2019-Aug-10 05:00N 37°03' W 008°38'0 0.5
2019-Aug-10 04:30N 37°03' W 008°38'2 3.7
2019-Aug-10 04:00N 37°01' W 008°37'4 8.7
2019-Aug-10 03:30N 36°57' W 008°37'510.3
2019-Aug-10 03:00N 36°52' W 008°37'5 9.5
2019-Aug-10 02:29N 36°47' W 008°35'5 9.6
2019-Aug-10 02:00N 36°43' W 008°33'2 4.7
2019-Aug-10 01:29N 36°41' W 008°31'0 0.0
2019-Aug-10 01:00N 36°41' W 008°31'4 8.3
2019-Aug-10 00:27N 36°45' W 008°31'0 0.3
2019-Aug-10 00:00N 36°45' W 008°31'2 4.2
2019-Aug-09 23:30N 36°47' W 008°31'2 4.0
2019-Aug-09 23:00N 36°49' W 008°31'4 7.8
2019-Aug-09 22:30N 36°53' W 008°31'0 0.2
2019-Aug-09 22:00N 36°53' W 008°31'1 2.6
2019-Aug-09 21:31N 36°54' W 008°31'1 2.9
2019-Aug-09 21:01N 36°56' W 008°31'2 4.9
2019-Aug-09 20:30N 36°58' W 008°31'3 6.0
2019-Aug-09 20:00N 37°01' W 008°32'2 5.0
2019-Aug-09 19:30N 37°04' W 008°31'5 9.7
2019-Aug-09 19:00N 37°00' W 008°27'5 9.9
2019-Aug-09 18:30N 36°56' W 008°23'4 7.7
2019-Aug-09 18:00N 36°54' W 008°20'2 4.5
2019-Aug-09 17:30N 36°56' W 008°20'3 5.7
2019-Aug-09 17:00N 36°59' W 008°20'2 3.1
2019-Aug-09 16:31N 37°00' W 008°20'2 4.1
2019-Aug-09 16:00N 37°02' W 008°21'510.8
2019-Aug-09 15:30N 37°05' W 008°27'510.0
2019-Aug-09 15:00N 36°60' W 008°27'510.4
2019-Aug-09 14:30N 36°54' W 008°27'1 1.0
2019-Aug-09 14:00N 36°54' W 008°27'2 4.3
2019-Aug-09 13:30N 36°56' W 008°27'2 4.4
2019-Aug-09 13:00N 36°58' W 008°27'2 4.1
2019-Aug-09 12:31N 36°56' W 008°27'510.0
2019-Aug-09 12:00N 36°51' W 008°27'510.1
2019-Aug-09 11:30N 36°46' W 008°27'5 8.5
2019-Aug-09 10:57N 36°45' W 008°21'5 7.1
2019-Aug-09 10:18N 36°48' W 008°17'3 9.7
2019-Aug-09 10:00N 36°51' W 008°17'2 3.7
2019-Aug-09 09:31N 36°52' W 008°19'2 4.2
2019-Aug-09 09:00N 36°51' W 008°17'1 1.5
2019-Aug-09 08:30N 36°51' W 008°16'4 8.7
2019-Aug-09 08:00N 36°54' W 008°18'5 9.1
2019-Aug-09 07:31N 36°50' W 008°17'3 5.9
2019-Aug-09 07:00N 36°53' W 008°17'510.2
2019-Aug-09 06:31N 36°58' W 008°17'4 7.5
2019-Aug-09 06:01N 37°02' W 008°17'2 4.0
2019-Aug-09 05:30N 37°01' W 008°15'1 2.6
2019-Aug-09 05:01N 37°01' W 008°16'3 6.1
2019-Aug-09 04:31N 36°59' W 008°18'4 7.3
2019-Aug-09 04:00N 36°55' W 008°21'3 6.1
2019-Aug-09 03:30N 36°52' W 008°21'2 3.0
2019-Aug-09 03:00N 36°51' W 008°20'3 3.5
2019-Aug-09 02:00N 36°48' W 008°20'1 2.7
2019-Aug-09 01:30N 36°46' W 008°20'2 3.7
2019-Aug-09 00:59N 36°44' W 008°20'1 1.1
2019-Aug-09 00:27N 36°44' W 008°20'3 6.2
2019-Aug-09 00:00N 36°41' W 008°20'1 1.4
2019-Aug-08 23:29N 36°40' W 008°20'4 6.7
2019-Aug-08 22:52N 36°36' W 008°20'0 0.0
2019-Aug-08 22:22N 36°36' W 008°20'1 2.1
2019-Aug-08 21:58N 36°35' W 008°20'4 7.4
2019-Aug-08 21:29N 36°32' W 008°20'0 0.0
2019-Aug-08 20:51N 36°32' W 008°20'0 0.0
2019-Aug-08 20:30N 36°32' W 008°20'3 5.9
2019-Aug-08 20:00N 36°33' W 008°17'9 4.9
2019-Aug-08 18:07N 36°40' W 008°09'1 3.6
2019-Aug-08 17:56N 36°41' W 008°09'3 2.9
2019-Aug-08 16:58N 36°44' W 008°09'0 0.0
2019-Aug-08 16:30N 36°44' W 008°09'3 5.9
2019-Aug-08 16:00N 36°47' W 008°09'1 1.5
2019-Aug-08 15:30N 36°47' W 008°09'3 6.4
2019-Aug-08 15:00N 36°50' W 008°08'2 3.5
2019-Aug-08 14:24N 36°52' W 008°06'0 0.4
2019-Aug-08 13:48N 36°52' W 008°06'2 6.8
2019-Aug-08 13:30N 36°51' W 008°08'4 9.1
2019-Aug-08 13:00N 36°55' W 008°06'2 3.1
2019-Aug-08 12:30N 36°57' W 008°07'3 5.1
2019-Aug-08 12:00N 36°59' W 008°07'1 2.8
2019-Aug-08 11:30N 37°01' W 008°07'5 9.9
2019-Aug-08 11:00N 36°55' W 008°07'510.1
2019-Aug-08 10:30N 36°51' W 008°07'710.5
2019-Aug-08 09:51N 36°44' W 008°07'3 7.6
2019-Aug-08 09:30N 36°43' W 008°04'510.2
2019-Aug-08 09:00N 36°43' W 007°57'910.1
2019-Aug-08 08:10N 36°51' W 007°57'1 4.8
2019-Aug-08 07:59N 36°52' W 007°56'2 2.6
2019-Aug-08 07:17N 36°54' W 007°57'2 4.2
2019-Aug-08 06:50N 36°56' W 007°57'410.2
2019-Aug-08 06:29N 36°52' W 007°57'5 3.7
2019-Aug-08 05:10N 36°56' W 008°01'1 5.0
2019-Aug-08 05:00N 36°55' W 008°01'3 5.1
2019-Aug-08 04:30N 36°54' W 008°04'3 5.3
2019-Aug-08 04:00N 36°52' W 008°06'4 7.1
2019-Aug-08 03:30N 36°49' W 008°09'0 0.3
2019-Aug-08 03:00N 36°49' W 008°09'2 4.3
2019-Aug-08 02:30N 36°51' W 008°10'3 5.2
2019-Aug-08 02:00N 36°54' W 008°09'5 7.8
2019-Aug-08 01:25N 36°58' W 008°09'3 6.6
2019-Aug-08 01:00N 37°01' W 008°10'3 6.5
2019-Aug-08 00:29N 36°60' W 008°06'6 8.9
2019-Aug-07 23:48N 36°57' W 007°59'2 5.8
2019-Aug-07 23:30N 36°55' W 007°59'2 3.4
2019-Aug-07 22:54N 36°53' W 007°58'1 1.6
2019-Aug-07 22:25N 36°52' W 007°58'1 2.6
2019-Aug-07 22:00N 36°51' W 007°58'2 3.9
2019-Aug-07 21:27N 36°49' W 007°58'1 1.6
2019-Aug-07 20:59N 36°49' W 007°57'1 1.9
2019-Aug-07 20:30N 36°48' W 007°57'1 2.9
2019-Aug-07 19:59N 36°46' W 007°57'1 1.7
2019-Aug-07 19:30N 36°45' W 007°57'3 3.9
2019-Aug-07 18:47N 36°43' W 007°57'1 2.0
2019-Aug-07 18:06N 36°41' W 007°56'0 0.1
2019-Aug-07 18:00N 36°41' W 007°56'4 7.3
2019-Aug-07 17:30N 36°44' W 007°53'44 0.9
2019-Aug-05 16:36N 37°07' W 007°07'15 5.0
2019-Aug-05 13:34N 36°53' W 007°07'110.1
2019-Aug-05 13:31N 36°52' W 007°07'3 5.3
2019-Aug-05 13:00N 36°50' W 007°05'2 3.1
2019-Aug-05 12:31N 36°51' W 007°05'5 1.9
2019-Aug-05 09:53N 36°47' W 007°08'610.7
2019-Aug-05 09:22N 36°52' W 007°05'410.6
2019-Aug-05 09:01N 36°55' W 007°03'5 9.0
2019-Aug-05 08:31N 36°60' W 007°02'1 1.7
2019-Aug-05 08:01N 37°01' W 007°02'  
Track history (hours):
 
Tides and Currents Weather Stations Pressure Air Temp Water Temp Dewpoint Dewpoint Depression Visibility Wind Speed Wind Dir Waves Ship Positions

Oceanographic research ship Miguel Oliver (Spain)

Ship's website: http://www.mapa.es/es/pesca/pags/miguel_web/index.htm

Last reported at 2019-Aug-15 07:46 UTC. Time now 2019-Aug-24 21:56 UTC.
Position N 41°57' W 009°03'.
Warning: this ship's position is 9 days out of date.

Length 70 m; draft 6 m.

Type: Other ship. MMSI: 225322000.

Date/timePositionNaut miles runAvg speedWind from/ knotsBaromVisibWave heightAir tempDewpointWater temp
2019-Aug-15 07:46N 41°57' W 009°03'310.6
2019-Aug-15 07:30N 41°54' W 009°04'6711.1
2019-Aug-15 01:28N 40°48' W 009°23'1611.1
2019-Aug-15 00:04N 40°33' W 009°27'7511.3
2019-Aug-14 17:28N 39°20' W 009°47'511.2
2019-Aug-14 17:00N 39°15' W 009°47'611.6
2019-Aug-14 16:30N 39°09' W 009°48'611.5
2019-Aug-14 16:01N 39°03' W 009°49'611.4
2019-Aug-14 15:30N 38°58' W 009°50'611.4
2019-Aug-14 15:00N 38°52' W 009°51'611.1
2019-Aug-14 14:30N 38°46' W 009°51'611.3
2019-Aug-14 14:00N 38°41' W 009°51'510.9
2019-Aug-14 13:30N 38°36' W 009°49'510.8
2019-Aug-14 13:00N 38°30' W 009°48'510.8
2019-Aug-14 12:30N 38°25' W 009°46'510.7
2019-Aug-14 12:00N 38°20' W 009°44'510.5
2019-Aug-14 11:30N 38°15' W 009°43'510.3
2019-Aug-14 11:00N 38°10' W 009°41'510.1
2019-Aug-14 10:30N 38°05' W 009°40'510.1
2019-Aug-14 10:00N 37°60' W 009°39'510.0
2019-Aug-14 09:30N 37°55' W 009°37'4 7.7
2019-Aug-14 09:01N 37°51' W 009°36'4 7.5
2019-Aug-14 08:30N 37°47' W 009°35'5 9.3
2019-Aug-14 08:00N 37°43' W 009°34'4 8.9
2019-Aug-14 07:31N 37°39' W 009°33'4 8.6
2019-Aug-14 07:00N 37°34' W 009°31'4 8.8
2019-Aug-14 06:30N 37°30' W 009°30'5 8.9
2019-Aug-14 05:58N 37°26' W 009°28'4 9.5
2019-Aug-14 05:30N 37°21' W 009°27'5 9.7
2019-Aug-14 04:58N 37°16' W 009°25'5 9.8
2019-Aug-14 04:30N 37°12' W 009°23'5 9.7
2019-Aug-14 04:00N 37°07' W 009°21'5 9.8
2019-Aug-14 03:31N 37°03' W 009°21'5 9.1
2019-Aug-14 03:01N 36°58' W 009°20'5 9.1
2019-Aug-14 02:30N 36°54' W 009°19'4 8.2
2019-Aug-14 02:00N 36°50' W 009°17'4 8.1
2019-Aug-14 01:31N 36°47' W 009°14'4 8.3
2019-Aug-14 01:01N 36°44' W 009°10'5 9.3
2019-Aug-14 00:31N 36°43' W 009°04'5 9.7
2019-Aug-14 00:01N 36°42' W 008°58'510.3
2019-Aug-13 23:31N 36°42' W 008°52'510.2
2019-Aug-13 22:58N 36°42' W 008°45'710.8
2019-Aug-13 22:19N 36°41' W 008°36'411.1
2019-Aug-13 22:00N 36°41' W 008°32'711.2
2019-Aug-13 21:24N 36°41' W 008°23'1211.3
2019-Aug-13 20:18N 36°40' W 008°08'411.3
2019-Aug-13 19:55N 36°40' W 008°03'511.2
2019-Aug-13 19:30N 36°39' W 007°57'611.1
2019-Aug-13 18:59N 36°39' W 007°49'12 0.3
2019-Aug-11 19:03N 36°46' W 008°02'411.0
2019-Aug-11 18:43N 36°45' W 008°06'24 4.5
2019-Aug-11 13:23N 36°36' W 008°34'3 6.8
2019-Aug-11 13:00N 36°36' W 008°31'0 0.0
2019-Aug-11 12:02N 36°36' W 008°31'17 7.7
2019-Aug-11 09:53N 36°44' W 008°49'12 8.1
2019-Aug-11 08:21N 36°55' W 008°57'1 2.1
2019-Aug-11 07:58N 36°54' W 008°57'2 4.3
2019-Aug-11 07:30N 36°52' W 008°57'2 4.9
2019-Aug-11 07:00N 36°50' W 008°56'4 7.9
2019-Aug-11 06:27N 36°54' W 008°57'510.7
2019-Aug-11 06:00N 36°59' W 008°57'4 7.3
2019-Aug-11 05:30N 37°00' W 008°52'2 4.0
2019-Aug-11 05:00N 37°00' W 008°50'2 3.9
2019-Aug-11 04:30N 37°01' W 008°48'2 4.0
2019-Aug-11 04:00N 37°01' W 008°45'2 4.2
2019-Aug-11 03:30N 37°01' W 008°42'1 1.8
2019-Aug-11 03:00N 36°60' W 008°43'3 5.3
2019-Aug-11 02:30N 37°00' W 008°46'2 3.7
2019-Aug-11 02:00N 36°60' W 008°48'2 3.5
2019-Aug-11 01:30N 36°59' W 008°50'2 4.7
2019-Aug-11 01:00N 36°58' W 008°53'3 6.5
2019-Aug-11 00:30N 36°58' W 008°57'2 3.9
2019-Aug-10 23:58N 36°56' W 008°56'2 3.8
2019-Aug-10 23:26N 36°54' W 008°57'2 4.0
2019-Aug-10 22:51N 36°51' W 008°56'3 4.2
2019-Aug-10 22:01N 36°48' W 008°54'0 4.2
2019-Aug-10 21:55N 36°48' W 008°54'1 0.9
2019-Aug-10 21:00N 36°47' W 008°53'1 2.4
2019-Aug-10 20:29N 36°48' W 008°53'0 0.5
2019-Aug-10 20:00N 36°48' W 008°53'2 4.6
2019-Aug-10 19:28N 36°51' W 008°53'1 2.4
2019-Aug-10 18:57N 36°52' W 008°53'2 4.1
2019-Aug-10 18:29N 36°54' W 008°53'3 6.7
2019-Aug-10 17:59N 36°57' W 008°53'2 3.9
2019-Aug-10 17:30N 36°59' W 008°53'2 3.3
2019-Aug-10 17:00N 37°01' W 008°53'2 3.6
2019-Aug-10 16:30N 37°01' W 008°51'2 4.7
2019-Aug-10 16:00N 37°02' W 008°49'2 3.1
2019-Aug-10 15:30N 37°01' W 008°47'510.0
2019-Aug-10 15:00N 36°56' W 008°46'0 0.7
2019-Aug-10 14:30N 36°56' W 008°47'2 4.7
2019-Aug-10 14:00N 36°58' W 008°47'4 7.3
2019-Aug-10 13:30N 36°55' W 008°47'4 7.7
2019-Aug-10 13:00N 36°51' W 008°45'5 9.5
2019-Aug-10 12:30N 36°53' W 008°40'2 3.1
2019-Aug-10 12:00N 36°53' W 008°38'2 4.3
2019-Aug-10 11:30N 36°52' W 008°36'1 2.8
2019-Aug-10 11:00N 36°53' W 008°37'0 0.4
2019-Aug-10 10:30N 36°53' W 008°38'3 5.8
2019-Aug-10 10:00N 36°52' W 008°34'4 8.5
2019-Aug-10 09:30N 36°55' W 008°37'1 1.4
2019-Aug-10 09:00N 36°55' W 008°37'2 4.4
2019-Aug-10 08:30N 36°53' W 008°37'1 2.4
2019-Aug-10 08:00N 36°51' W 008°37'510.7
2019-Aug-10 07:30N 36°57' W 008°37'510.5
2019-Aug-10 07:00N 37°02' W 008°37'2 3.1
2019-Aug-10 06:30N 37°03' W 008°38'3 5.9
2019-Aug-10 06:00N 37°06' W 008°37'1 1.7
2019-Aug-10 05:30N 37°05' W 008°37'3 5.2
2019-Aug-10 05:00N 37°03' W 008°38'0 0.5
2019-Aug-10 04:30N 37°03' W 008°38'2 3.7
2019-Aug-10 04:00N 37°01' W 008°37'4 8.7
2019-Aug-10 03:30N 36°57' W 008°37'510.3
2019-Aug-10 03:00N 36°52' W 008°37'5 9.5
2019-Aug-10 02:29N 36°47' W 008°35'5 9.6
2019-Aug-10 02:00N 36°43' W 008°33'2 4.7
2019-Aug-10 01:29N 36°41' W 008°31'0 0.0
2019-Aug-10 01:00N 36°41' W 008°31'4 8.3
2019-Aug-10 00:27N 36°45' W 008°31'0 0.3
2019-Aug-10 00:00N 36°45' W 008°31'2 4.2
2019-Aug-09 23:30N 36°47' W 008°31'2 4.0
2019-Aug-09 23:00N 36°49' W 008°31'4 7.8
2019-Aug-09 22:30N 36°53' W 008°31'0 0.2
2019-Aug-09 22:00N 36°53' W 008°31'1 2.6
2019-Aug-09 21:31N 36°54' W 008°31'1 2.9
2019-Aug-09 21:01N 36°56' W 008°31'2 4.9
2019-Aug-09 20:30N 36°58' W 008°31'3 6.0
2019-Aug-09 20:00N 37°01' W 008°32'2 5.0
2019-Aug-09 19:30N 37°04' W 008°31'5 9.7
2019-Aug-09 19:00N 37°00' W 008°27'5 9.9
2019-Aug-09 18:30N 36°56' W 008°23'4 7.7
2019-Aug-09 18:00N 36°54' W 008°20'2 4.5
2019-Aug-09 17:30N 36°56' W 008°20'3 5.7
2019-Aug-09 17:00N 36°59' W 008°20'2 3.1
2019-Aug-09 16:31N 37°00' W 008°20'2 4.1
2019-Aug-09 16:00N 37°02' W 008°21'510.8
2019-Aug-09 15:30N 37°05' W 008°27'510.0
2019-Aug-09 15:00N 36°60' W 008°27'510.4
2019-Aug-09 14:30N 36°54' W 008°27'1 1.0
2019-Aug-09 14:00N 36°54' W 008°27'2 4.3
2019-Aug-09 13:30N 36°56' W 008°27'2 4.4
2019-Aug-09 13:00N 36°58' W 008°27'2 4.1
2019-Aug-09 12:31N 36°56' W 008°27'510.0
2019-Aug-09 12:00N 36°51' W 008°27'510.1
2019-Aug-09 11:30N 36°46' W 008°27'5 8.5
2019-Aug-09 10:57N 36°45' W 008°21'5 7.1
2019-Aug-09 10:18N 36°48' W 008°17'3 9.7
2019-Aug-09 10:00N 36°51' W 008°17'2 3.7
2019-Aug-09 09:31N 36°52' W 008°19'2 4.2
2019-Aug-09 09:00N 36°51' W 008°17'1 1.5
2019-Aug-09 08:30N 36°51' W 008°16'4 8.7
2019-Aug-09 08:00N 36°54' W 008°18'5 9.1
2019-Aug-09 07:31N 36°50' W 008°17'3 5.9
2019-Aug-09 07:00N 36°53' W 008°17'510.2
2019-Aug-09 06:31N 36°58' W 008°17'4 7.5
2019-Aug-09 06:01N 37°02' W 008°17'2 4.0
2019-Aug-09 05:30N 37°01' W 008°15'1 2.6
2019-Aug-09 05:01N 37°01' W 008°16'3 6.1
2019-Aug-09 04:31N 36°59' W 008°18'4 7.3
2019-Aug-09 04:00N 36°55' W 008°21'3 6.1
2019-Aug-09 03:30N 36°52' W 008°21'2 3.0
2019-Aug-09 03:00N 36°51' W 008°20'3 3.5
2019-Aug-09 02:00N 36°48' W 008°20'1 2.7
2019-Aug-09 01:30N 36°46' W 008°20'2 3.7
2019-Aug-09 00:59N 36°44' W 008°20'1 1.1
2019-Aug-09 00:27N 36°44' W 008°20'3 6.2
2019-Aug-09 00:00N 36°41' W 008°20'1 1.4
2019-Aug-08 23:29N 36°40' W 008°20'4 6.7
2019-Aug-08 22:52N 36°36' W 008°20'0 0.0
2019-Aug-08 22:22N 36°36' W 008°20'1 2.1
2019-Aug-08 21:58N 36°35' W 008°20'4 7.4
2019-Aug-08 21:29N 36°32' W 008°20'0 0.0
2019-Aug-08 20:51N 36°32' W 008°20'0 0.0
2019-Aug-08 20:30N 36°32' W 008°20'3 5.9
2019-Aug-08 20:00N 36°33' W 008°17'9 4.9
2019-Aug-08 18:07N 36°40' W 008°09'1 3.6
2019-Aug-08 17:56N 36°41' W 008°09'3 2.9
2019-Aug-08 16:58N 36°44' W 008°09'0 0.0
2019-Aug-08 16:30N 36°44' W 008°09'3 5.9
2019-Aug-08 16:00N 36°47' W 008°09'1 1.5
2019-Aug-08 15:30N 36°47' W 008°09'3 6.4
2019-Aug-08 15:00N 36°50' W 008°08'2 3.5
2019-Aug-08 14:24N 36°52' W 008°06'0 0.4
2019-Aug-08 13:48N 36°52' W 008°06'2 6.8
2019-Aug-08 13:30N 36°51' W 008°08'4 9.1
2019-Aug-08 13:00N 36°55' W 008°06'2 3.1
2019-Aug-08 12:30N 36°57' W 008°07'3 5.1
2019-Aug-08 12:00N 36°59' W 008°07'1 2.8
2019-Aug-08 11:30N 37°01' W 008°07'5 9.9
2019-Aug-08 11:00N 36°55' W 008°07'510.1
2019-Aug-08 10:30N 36°51' W 008°07'710.5
2019-Aug-08 09:51N 36°44' W 008°07'3 7.6
2019-Aug-08 09:30N 36°43' W 008°04'510.2
2019-Aug-08 09:00N 36°43' W 007°57'910.1
2019-Aug-08 08:10N 36°51' W 007°57'1 4.8
2019-Aug-08 07:59N 36°52' W 007°56'2 2.6
2019-Aug-08 07:17N 36°54' W 007°57'2 4.2
2019-Aug-08 06:50N 36°56' W 007°57'410.2
2019-Aug-08 06:29N 36°52' W 007°57'5 3.7
2019-Aug-08 05:10N 36°56' W 008°01'1 5.0
2019-Aug-08 05:00N 36°55' W 008°01'3 5.1
2019-Aug-08 04:30N 36°54' W 008°04'3 5.3
2019-Aug-08 04:00N 36°52' W 008°06'4 7.1
2019-Aug-08 03:30N 36°49' W 008°09'0 0.3
2019-Aug-08 03:00N 36°49' W 008°09'2 4.3
2019-Aug-08 02:30N 36°51' W 008°10'3 5.2
2019-Aug-08 02:00N 36°54' W 008°09'5 7.8
2019-Aug-08 01:25N 36°58' W 008°09'3 6.6
2019-Aug-08 01:00N 37°01' W 008°10'3 6.5
2019-Aug-08 00:29N 36°60' W 008°06'6 8.9
2019-Aug-07 23:48N 36°57' W 007°59'2 5.8
2019-Aug-07 23:30N 36°55' W 007°59'2 3.4
2019-Aug-07 22:54N 36°53' W 007°58'1 1.6
2019-Aug-07 22:25N 36°52' W 007°58'1 2.6
2019-Aug-07 22:00N 36°51' W 007°58'2 3.9
2019-Aug-07 21:27N 36°49' W 007°58'1 1.6
2019-Aug-07 20:59N 36°49' W 007°57'1 1.9
2019-Aug-07 20:30N 36°48' W 007°57'1 2.9
2019-Aug-07 19:59N 36°46' W 007°57'1 1.7
2019-Aug-07 19:30N 36°45' W 007°57'3 3.9
2019-Aug-07 18:47N 36°43' W 007°57'1 2.0
2019-Aug-07 18:06N 36°41' W 007°56'0 0.1
2019-Aug-07 18:00N 36°41' W 007°56'4 7.3
2019-Aug-07 17:30N 36°44' W 007°53'44 0.9
2019-Aug-05 16:36N 37°07' W 007°07'15 5.0
2019-Aug-05 13:34N 36°53' W 007°07'110.1
2019-Aug-05 13:31N 36°52' W 007°07'3 5.3
2019-Aug-05 13:00N 36°50' W 007°05'2 3.1
2019-Aug-05 12:31N 36°51' W 007°05'5 1.9
2019-Aug-05 09:53N 36°47' W 007°08'610.7
2019-Aug-05 09:22N 36°52' W 007°05'410.6
2019-Aug-05 09:01N 36°55' W 007°03'5 9.0
2019-Aug-05 08:31N 36°60' W 007°02'1 1.7
2019-Aug-05 08:01N 37°01' W 007°02'  

Dump ship's entire track history